sensor_id;sensor_type;location;lat;lon;timestamp;P1;durP1;ratioP1;P2;durP2;ratioP2
14766;SDS011;7475;53.558;9.970;2023-04-24T00:00:21;8.03;;;6.63;;
14766;SDS011;7475;53.558;9.970;2023-04-24T00:02:46;7.60;;;6.80;;
14766;SDS011;7475;53.558;9.970;2023-04-24T00:05:13;6.85;;;6.20;;
14766;SDS011;7475;53.558;9.970;2023-04-24T00:07:38;7.10;;;6.40;;
14766;SDS011;7475;53.558;9.970;2023-04-24T00:10:04;7.00;;;6.38;;
14766;SDS011;7475;53.558;9.970;2023-04-24T00:12:29;7.10;;;6.45;;
14766;SDS011;7475;53.558;9.970;2023-04-24T00:14:55;7.35;;;6.60;;
14766;SDS011;7475;53.558;9.970;2023-04-24T00:17:20;7.00;;;6.40;;
14766;SDS011;7475;53.558;9.970;2023-04-24T00:19:46;7.53;;;6.15;;
14766;SDS011;7475;53.558;9.970;2023-04-24T00:22:11;6.55;;;5.95;;
14766;SDS011;7475;53.558;9.970;2023-04-24T00:24:38;7.20;;;5.80;;
14766;SDS011;7475;53.558;9.970;2023-04-24T00:27:03;6.50;;;5.90;;
14766;SDS011;7475;53.558;9.970;2023-04-24T00:29:28;6.00;;;5.40;;
14766;SDS011;7475;53.558;9.970;2023-04-24T00:31:53;5.93;;;5.32;;
14766;SDS011;7475;53.558;9.970;2023-04-24T00:34:19;6.00;;;5.15;;
14766;SDS011;7475;53.558;9.970;2023-04-24T00:36:44;6.75;;;5.32;;
14766;SDS011;7475;53.558;9.970;2023-04-24T00:39:09;5.15;;;4.65;;
14766;SDS011;7475;53.558;9.970;2023-04-24T00:41:35;6.07;;;5.57;;
14766;SDS011;7475;53.558;9.970;2023-04-24T00:44:00;6.53;;;5.20;;
14766;SDS011;7475;53.558;9.970;2023-04-24T00:46:25;9.80;;;8.88;;
14766;SDS011;7475;53.558;9.970;2023-04-24T00:48:50;5.40;;;4.90;;
14766;SDS011;7475;53.558;9.970;2023-04-24T00:51:16;6.90;;;6.30;;
14766;SDS011;7475;53.558;9.970;2023-04-24T00:53:41;6.28;;;5.75;;
14766;SDS011;7475;53.558;9.970;2023-04-24T00:56:06;6.03;;;5.53;;
14766;SDS011;7475;53.558;9.970;2023-04-24T00:58:32;6.05;;;5.45;;
14766;SDS011;7475;53.558;9.970;2023-04-24T01:00:57;8.65;;;7.75;;
14766;SDS011;7475;53.558;9.970;2023-04-24T01:03:24;7.13;;;5.72;;
14766;SDS011;7475;53.558;9.970;2023-04-24T01:05:51;7.38;;;6.50;;
14766;SDS011;7475;53.558;9.970;2023-04-24T01:08:16;6.22;;;5.63;;
14766;SDS011;7475;53.558;9.970;2023-04-24T01:10:41;6.97;;;6.10;;
14766;SDS011;7475;53.558;9.970;2023-04-24T01:13:08;6.78;;;5.18;;
14766;SDS011;7475;53.558;9.970;2023-04-24T01:15:34;6.47;;;5.53;;
14766;SDS011;7475;53.558;9.970;2023-04-24T01:17:59;6.03;;;5.53;;
14766;SDS011;7475;53.558;9.970;2023-04-24T01:20:24;6.68;;;5.47;;
14766;SDS011;7475;53.558;9.970;2023-04-24T01:22:51;5.70;;;5.20;;
14766;SDS011;7475;53.558;9.970;2023-04-24T01:25:16;5.75;;;5.25;;
14766;SDS011;7475;53.558;9.970;2023-04-24T01:27:41;6.28;;;4.93;;
14766;SDS011;7475;53.558;9.970;2023-04-24T01:30:07;5.78;;;5.18;;
14766;SDS011;7475;53.558;9.970;2023-04-24T01:32:32;5.97;;;5.25;;
14766;SDS011;7475;53.558;9.970;2023-04-24T01:34:57;5.15;;;4.72;;
14766;SDS011;7475;53.558;9.970;2023-04-24T01:37:23;5.28;;;4.88;;
14766;SDS011;7475;53.558;9.970;2023-04-24T01:39:48;7.07;;;4.47;;
14766;SDS011;7475;53.558;9.970;2023-04-24T01:42:13;5.50;;;4.07;;
14766;SDS011;7475;53.558;9.970;2023-04-24T01:44:39;4.82;;;4.43;;
14766;SDS011;7475;53.558;9.970;2023-04-24T01:47:04;6.43;;;4.32;;
14766;SDS011;7475;53.558;9.970;2023-04-24T01:49:30;4.68;;;4.28;;
14766;SDS011;7475;53.558;9.970;2023-04-24T01:51:55;4.50;;;3.92;;
14766;SDS011;7475;53.558;9.970;2023-04-24T01:54:21;4.20;;;3.65;;
14766;SDS011;7475;53.558;9.970;2023-04-24T01:56:46;4.20;;;2.90;;
14766;SDS011;7475;53.558;9.970;2023-04-24T01:59:11;3.63;;;2.70;;
14766;SDS011;7475;53.558;9.970;2023-04-24T02:01:37;2.42;;;2.22;;
14766;SDS011;7475;53.558;9.970;2023-04-24T02:04:03;3.78;;;2.42;;
14766;SDS011;7475;53.558;9.970;2023-04-24T02:06:28;5.47;;;2.55;;
14766;SDS011;7475;53.558;9.970;2023-04-24T02:08:53;2.58;;;2.30;;
14766;SDS011;7475;53.558;9.970;2023-04-24T02:11:19;2.88;;;2.20;;
14766;SDS011;7475;53.558;9.970;2023-04-24T02:13:44;2.38;;;2.13;;
14766;SDS011;7475;53.558;9.970;2023-04-24T02:16:09;2.47;;;1.77;;
14766;SDS011;7475;53.558;9.970;2023-04-24T02:18:34;2.60;;;2.08;;
14766;SDS011;7475;53.558;9.970;2023-04-24T02:21:00;2.13;;;1.92;;
14766;SDS011;7475;53.558;9.970;2023-04-24T02:23:25;3.90;;;2.22;;
14766;SDS011;7475;53.558;9.970;2023-04-24T02:25:52;3.28;;;2.10;;
14766;SDS011;7475;53.558;9.970;2023-04-24T02:28:18;2.47;;;2.25;;
14766;SDS011;7475;53.558;9.970;2023-04-24T02:30:43;2.22;;;2.13;;
14766;SDS011;7475;53.558;9.970;2023-04-24T02:33:08;2.95;;;2.50;;
14766;SDS011;7475;53.558;9.970;2023-04-24T02:35:33;2.57;;;2.37;;
14766;SDS011;7475;53.558;9.970;2023-04-24T02:37:59;3.20;;;2.40;;
14766;SDS011;7475;53.558;9.970;2023-04-24T02:40:24;3.60;;;2.50;;
14766;SDS011;7475;53.558;9.970;2023-04-24T02:42:49;2.40;;;2.20;;
14766;SDS011;7475;53.558;9.970;2023-04-24T02:45:14;2.30;;;2.08;;
14766;SDS011;7475;53.558;9.970;2023-04-24T02:47:39;3.97;;;2.70;;
14766;SDS011;7475;53.558;9.970;2023-04-24T02:50:05;2.63;;;2.40;;
14766;SDS011;7475;53.558;9.970;2023-04-24T02:52:30;2.95;;;2.30;;
14766;SDS011;7475;53.558;9.970;2023-04-24T02:54:56;4.43;;;2.27;;
14766;SDS011;7475;53.558;9.970;2023-04-24T02:57:21;2.40;;;2.20;;
14766;SDS011;7475;53.558;9.970;2023-04-24T02:59:46;2.53;;;2.30;;
14766;SDS011;7475;53.558;9.970;2023-04-24T03:02:11;3.30;;;1.97;;
14766;SDS011;7475;53.558;9.970;2023-04-24T03:04:36;2.58;;;1.90;;
14766;SDS011;7475;53.558;9.970;2023-04-24T03:07:01;1.93;;;1.80;;
14766;SDS011;7475;53.558;9.970;2023-04-24T03:09:27;1.77;;;1.60;;
14766;SDS011;7475;53.558;9.970;2023-04-24T03:11:52;2.87;;;2.00;;
14766;SDS011;7475;53.558;9.970;2023-04-24T03:14:17;2.05;;;1.85;;
14766;SDS011;7475;53.558;9.970;2023-04-24T03:16:42;2.50;;;1.70;;
14766;SDS011;7475;53.558;9.970;2023-04-24T03:19:07;2.13;;;1.70;;
14766;SDS011;7475;53.558;9.970;2023-04-24T03:21:33;3.70;;;2.20;;
14766;SDS011;7475;53.558;9.970;2023-04-24T03:23:58;2.08;;;1.75;;
14766;SDS011;7475;53.558;9.970;2023-04-24T03:26:23;2.63;;;1.90;;
14766;SDS011;7475;53.558;9.970;2023-04-24T03:28:49;2.88;;;2.00;;
14766;SDS011;7475;53.558;9.970;2023-04-24T03:31:14;4.00;;;1.87;;
14766;SDS011;7475;53.558;9.970;2023-04-24T03:33:40;3.17;;;1.50;;
14766;SDS011;7475;53.558;9.970;2023-04-24T03:36:05;1.70;;;1.60;;
14766;SDS011;7475;53.558;9.970;2023-04-24T03:38:31;1.63;;;1.50;;
14766;SDS011;7475;53.558;9.970;2023-04-24T03:40:56;2.42;;;1.50;;
14766;SDS011;7475;53.558;9.970;2023-04-24T03:43:21;2.50;;;1.80;;
14766;SDS011;7475;53.558;9.970;2023-04-24T03:45:46;2.00;;;1.47;;
14766;SDS011;7475;53.558;9.970;2023-04-24T03:48:12;1.95;;;1.73;;
14766;SDS011;7475;53.558;9.970;2023-04-24T03:50:37;3.90;;;1.48;;
14766;SDS011;7475;53.558;9.970;2023-04-24T03:53:02;1.45;;;1.33;;
14766;SDS011;7475;53.558;9.970;2023-04-24T03:55:27;1.57;;;1.37;;
14766;SDS011;7475;53.558;9.970;2023-04-24T03:57:52;1.50;;;1.10;;
14766;SDS011;7475;53.558;9.970;2023-04-24T04:00:17;2.00;;;1.30;;
14766;SDS011;7475;53.558;9.970;2023-04-24T04:02:43;2.40;;;1.45;;
14766;SDS011;7475;53.558;9.970;2023-04-24T04:05:08;1.13;;;1.05;;
14766;SDS011;7475;53.558;9.970;2023-04-24T04:07:34;1.20;;;1.10;;
14766;SDS011;7475;53.558;9.970;2023-04-24T04:09:59;2.42;;;1.20;;
14766;SDS011;7475;53.558;9.970;2023-04-24T04:12:24;1.77;;;1.10;;
14766;SDS011;7475;53.558;9.970;2023-04-24T04:14:49;1.17;;;1.05;;
14766;SDS011;7475;53.558;9.970;2023-04-24T04:17:15;1.58;;;1.10;;
14766;SDS011;7475;53.558;9.970;2023-04-24T04:19:40;1.20;;;1.10;;
14766;SDS011;7475;53.558;9.970;2023-04-24T04:22:05;1.20;;;1.10;;
14766;SDS011;7475;53.558;9.970;2023-04-24T04:24:32;1.10;;;1.02;;
14766;SDS011;7475;53.558;9.970;2023-04-24T04:26:58;2.67;;;0.98;;
14766;SDS011;7475;53.558;9.970;2023-04-24T04:29:23;3.05;;;1.13;;
14766;SDS011;7475;53.558;9.970;2023-04-24T04:31:48;3.80;;;1.20;;
14766;SDS011;7475;53.558;9.970;2023-04-24T04:34:14;2.17;;;1.25;;
14766;SDS011;7475;53.558;9.970;2023-04-24T04:36:39;1.30;;;1.20;;
14766;SDS011;7475;53.558;9.970;2023-04-24T04:39:05;1.50;;;0.90;;
14766;SDS011;7475;53.558;9.970;2023-04-24T04:41:30;1.20;;;1.10;;
14766;SDS011;7475;53.558;9.970;2023-04-24T04:43:56;0.80;;;0.80;;
14766;SDS011;7475;53.558;9.970;2023-04-24T04:46:23;1.88;;;1.25;;
14766;SDS011;7475;53.558;9.970;2023-04-24T04:48:50;1.30;;;1.20;;
14766;SDS011;7475;53.558;9.970;2023-04-24T04:51:16;1.25;;;1.00;;
14766;SDS011;7475;53.558;9.970;2023-04-24T04:53:41;1.65;;;1.20;;
14766;SDS011;7475;53.558;9.970;2023-04-24T04:56:06;3.23;;;1.30;;
14766;SDS011;7475;53.558;9.970;2023-04-24T04:58:32;1.65;;;1.20;;
14766;SDS011;7475;53.558;9.970;2023-04-24T05:00:57;1.20;;;1.00;;
14766;SDS011;7475;53.558;9.970;2023-04-24T05:03:23;1.77;;;1.23;;
14766;SDS011;7475;53.558;9.970;2023-04-24T05:05:48;2.38;;;1.15;;
14766;SDS011;7475;53.558;9.970;2023-04-24T05:08:13;2.20;;;1.03;;
14766;SDS011;7475;53.558;9.970;2023-04-24T05:10:38;0.97;;;0.97;;
14766;SDS011;7475;53.558;9.970;2023-04-24T05:13:04;1.95;;;1.00;;
14766;SDS011;7475;53.558;9.970;2023-04-24T05:15:29;2.45;;;1.10;;
14766;SDS011;7475;53.558;9.970;2023-04-24T05:17:55;1.60;;;1.20;;
14766;SDS011;7475;53.558;9.970;2023-04-24T05:20:20;1.40;;;0.90;;
14766;SDS011;7475;53.558;9.970;2023-04-24T05:22:45;2.60;;;2.38;;
14766;SDS011;7475;53.558;9.970;2023-04-24T05:25:10;1.70;;;1.23;;
14766;SDS011;7475;53.558;9.970;2023-04-24T05:27:37;2.05;;;1.05;;
14766;SDS011;7475;53.558;9.970;2023-04-24T05:30:02;1.17;;;1.00;;
14766;SDS011;7475;53.558;9.970;2023-04-24T05:32:28;1.10;;;0.98;;
14766;SDS011;7475;53.558;9.970;2023-04-24T05:34:53;2.13;;;1.20;;
14766;SDS011;7475;53.558;9.970;2023-04-24T05:37:18;1.45;;;1.20;;
14766;SDS011;7475;53.558;9.970;2023-04-24T05:39:43;2.25;;;1.00;;
14766;SDS011;7475;53.558;9.970;2023-04-24T05:42:08;1.25;;;1.10;;
14766;SDS011;7475;53.558;9.970;2023-04-24T05:44:34;2.55;;;0.82;;
14766;SDS011;7475;53.558;9.970;2023-04-24T05:46:59;1.45;;;1.10;;
14766;SDS011;7475;53.558;9.970;2023-04-24T05:49:24;2.15;;;0.93;;
14766;SDS011;7475;53.558;9.970;2023-04-24T05:51:49;4.05;;;1.30;;
14766;SDS011;7475;53.558;9.970;2023-04-24T05:54:14;1.40;;;1.20;;
14766;SDS011;7475;53.558;9.970;2023-04-24T05:56:40;1.20;;;1.10;;
14766;SDS011;7475;53.558;9.970;2023-04-24T05:59:05;3.80;;;2.08;;
14766;SDS011;7475;53.558;9.970;2023-04-24T06:01:30;1.43;;;1.33;;
14766;SDS011;7475;53.558;9.970;2023-04-24T06:03:56;3.15;;;1.20;;
14766;SDS011;7475;53.558;9.970;2023-04-24T06:06:21;1.55;;;1.23;;
14766;SDS011;7475;53.558;9.970;2023-04-24T06:08:46;2.20;;;1.38;;
14766;SDS011;7475;53.558;9.970;2023-04-24T06:11:12;2.20;;;1.30;;
14766;SDS011;7475;53.558;9.970;2023-04-24T06:13:37;2.53;;;2.33;;
14766;SDS011;7475;53.558;9.970;2023-04-24T06:16:02;1.50;;;0.97;;
14766;SDS011;7475;53.558;9.970;2023-04-24T06:18:27;1.52;;;0.98;;
14766;SDS011;7475;53.558;9.970;2023-04-24T06:20:52;2.05;;;1.23;;
14766;SDS011;7475;53.558;9.970;2023-04-24T06:23:18;1.38;;;0.98;;
14766;SDS011;7475;53.558;9.970;2023-04-24T06:25:43;4.10;;;1.35;;
14766;SDS011;7475;53.558;9.970;2023-04-24T06:28:08;1.40;;;1.15;;
14766;SDS011;7475;53.558;9.970;2023-04-24T06:30:33;2.22;;;1.17;;
14766;SDS011;7475;53.558;9.970;2023-04-24T06:32:58;1.50;;;1.10;;
14766;SDS011;7475;53.558;9.970;2023-04-24T06:35:24;2.53;;;1.40;;
14766;SDS011;7475;53.558;9.970;2023-04-24T06:37:49;1.50;;;1.40;;
14766;SDS011;7475;53.558;9.970;2023-04-24T06:40:15;3.25;;;1.40;;
14766;SDS011;7475;53.558;9.970;2023-04-24T06:42:40;1.33;;;1.23;;
14766;SDS011;7475;53.558;9.970;2023-04-24T06:45:05;1.80;;;1.48;;
14766;SDS011;7475;53.558;9.970;2023-04-24T06:47:31;2.20;;;1.42;;
14766;SDS011;7475;53.558;9.970;2023-04-24T06:49:56;1.38;;;1.27;;
14766;SDS011;7475;53.558;9.970;2023-04-24T06:52:22;1.48;;;1.13;;
14766;SDS011;7475;53.558;9.970;2023-04-24T06:54:47;2.65;;;1.20;;
14766;SDS011;7475;53.558;9.970;2023-04-24T06:57:12;2.40;;;1.52;;
14766;SDS011;7475;53.558;9.970;2023-04-24T06:59:37;1.70;;;1.40;;
14766;SDS011;7475;53.558;9.970;2023-04-24T07:02:03;1.40;;;1.30;;
14766;SDS011;7475;53.558;9.970;2023-04-24T07:04:28;2.55;;;1.42;;
14766;SDS011;7475;53.558;9.970;2023-04-24T07:06:54;1.83;;;1.33;;
14766;SDS011;7475;53.558;9.970;2023-04-24T07:09:20;2.20;;;1.50;;
14766;SDS011;7475;53.558;9.970;2023-04-24T07:11:46;1.70;;;1.58;;
14766;SDS011;7475;53.558;9.970;2023-04-24T07:14:12;2.00;;;1.70;;
14766;SDS011;7475;53.558;9.970;2023-04-24T07:16:37;1.50;;;1.40;;
14766;SDS011;7475;53.558;9.970;2023-04-24T07:19:02;3.20;;;1.30;;
14766;SDS011;7475;53.558;9.970;2023-04-24T07:21:27;1.70;;;1.60;;
14766;SDS011;7475;53.558;9.970;2023-04-24T07:23:53;2.40;;;2.00;;
14766;SDS011;7475;53.558;9.970;2023-04-24T07:26:18;2.65;;;2.13;;
14766;SDS011;7475;53.558;9.970;2023-04-24T07:28:43;2.20;;;1.92;;
14766;SDS011;7475;53.558;9.970;2023-04-24T07:31:08;2.28;;;1.60;;
14766;SDS011;7475;53.558;9.970;2023-04-24T07:33:34;2.67;;;1.52;;
14766;SDS011;7475;53.558;9.970;2023-04-24T07:35:59;2.20;;;2.00;;
14766;SDS011;7475;53.558;9.970;2023-04-24T07:38:24;3.35;;;2.10;;
14766;SDS011;7475;53.558;9.970;2023-04-24T07:40:50;4.63;;;2.00;;
14766;SDS011;7475;53.558;9.970;2023-04-24T07:43:16;2.13;;;1.98;;
14766;SDS011;7475;53.558;9.970;2023-04-24T07:45:41;4.27;;;2.20;;
14766;SDS011;7475;53.558;9.970;2023-04-24T07:48:06;3.17;;;2.17;;
14766;SDS011;7475;53.558;9.970;2023-04-24T07:50:33;4.22;;;2.10;;
14766;SDS011;7475;53.558;9.970;2023-04-24T07:52:59;2.58;;;2.38;;
14766;SDS011;7475;53.558;9.970;2023-04-24T07:55:25;3.08;;;2.28;;
14766;SDS011;7475;53.558;9.970;2023-04-24T07:57:50;3.58;;;2.30;;
14766;SDS011;7475;53.558;9.970;2023-04-24T08:00:16;3.70;;;2.13;;
14766;SDS011;7475;53.558;9.970;2023-04-24T08:02:41;2.65;;;2.33;;
14766;SDS011;7475;53.558;9.970;2023-04-24T08:05:06;2.40;;;2.07;;
14766;SDS011;7475;53.558;9.970;2023-04-24T08:07:32;2.80;;;2.60;;
14766;SDS011;7475;53.558;9.970;2023-04-24T08:09:57;2.60;;;2.40;;
14766;SDS011;7475;53.558;9.970;2023-04-24T08:12:24;2.78;;;2.55;;
14766;SDS011;7475;53.558;9.970;2023-04-24T08:14:49;2.70;;;2.50;;
14766;SDS011;7475;53.558;9.970;2023-04-24T08:17:14;3.95;;;2.70;;
14766;SDS011;7475;53.558;9.970;2023-04-24T08:19:41;3.58;;;3.28;;
14766;SDS011;7475;53.558;9.970;2023-04-24T08:22:12;3.10;;;2.78;;
14766;SDS011;7475;53.558;9.970;2023-04-24T08:24:37;4.17;;;2.60;;
14766;SDS011;7475;53.558;9.970;2023-04-24T08:27:02;3.35;;;3.05;;
14766;SDS011;7475;53.558;9.970;2023-04-24T08:29:27;3.70;;;2.93;;
14766;SDS011;7475;53.558;9.970;2023-04-24T08:31:53;3.10;;;2.77;;
14766;SDS011;7475;53.558;9.970;2023-04-24T08:34:19;3.08;;;2.78;;
14766;SDS011;7475;53.558;9.970;2023-04-24T08:36:44;3.67;;;2.70;;
14766;SDS011;7475;53.558;9.970;2023-04-24T08:39:10;3.05;;;2.70;;
14766;SDS011;7475;53.558;9.970;2023-04-24T08:41:35;5.15;;;3.00;;
14766;SDS011;7475;53.558;9.970;2023-04-24T08:44:01;3.95;;;3.10;;
14766;SDS011;7475;53.558;9.970;2023-04-24T08:46:27;3.55;;;3.25;;
14766;SDS011;7475;53.558;9.970;2023-04-24T08:48:52;3.70;;;3.40;;
14766;SDS011;7475;53.558;9.970;2023-04-24T08:51:18;3.92;;;3.45;;
14766;SDS011;7475;53.558;9.970;2023-04-24T08:53:44;4.35;;;3.88;;
14766;SDS011;7475;53.558;9.970;2023-04-24T08:56:10;4.10;;;3.70;;
14766;SDS011;7475;53.558;9.970;2023-04-24T08:58:36;4.10;;;3.70;;
14766;SDS011;7475;53.558;9.970;2023-04-24T09:01:01;3.85;;;3.45;;
14766;SDS011;7475;53.558;9.970;2023-04-24T09:03:27;4.18;;;3.50;;
14766;SDS011;7475;53.558;9.970;2023-04-24T09:05:52;4.28;;;3.47;;
14766;SDS011;7475;53.558;9.970;2023-04-24T09:08:19;4.25;;;3.88;;
14766;SDS011;7475;53.558;9.970;2023-04-24T09:10:44;4.18;;;3.42;;
14766;SDS011;7475;53.558;9.970;2023-04-24T09:13:10;3.63;;;3.33;;
14766;SDS011;7475;53.558;9.970;2023-04-24T09:15:36;4.65;;;3.38;;
14766;SDS011;7475;53.558;9.970;2023-04-24T09:18:01;3.53;;;3.22;;
14766;SDS011;7475;53.558;9.970;2023-04-24T09:20:27;3.83;;;3.20;;
14766;SDS011;7475;53.558;9.970;2023-04-24T09:22:56;3.83;;;3.50;;
14766;SDS011;7475;53.558;9.970;2023-04-24T09:25:21;3.58;;;3.28;;
14766;SDS011;7475;53.558;9.970;2023-04-24T09:27:47;3.50;;;3.20;;
14766;SDS011;7475;53.558;9.970;2023-04-24T09:30:12;3.47;;;3.17;;
14766;SDS011;7475;53.558;9.970;2023-04-24T09:32:38;3.70;;;3.40;;
14766;SDS011;7475;53.558;9.970;2023-04-24T09:35:13;3.40;;;3.13;;
14766;SDS011;7475;53.558;9.970;2023-04-24T09:37:42;3.67;;;3.38;;
14766;SDS011;7475;53.558;9.970;2023-04-24T09:42:33;4.90;;;3.88;;
14766;SDS011;7475;53.558;9.970;2023-04-24T09:44:58;4.55;;;3.70;;
14766;SDS011;7475;53.558;9.970;2023-04-24T09:47:23;5.07;;;4.20;;
14766;SDS011;7475;53.558;9.970;2023-04-24T09:49:49;4.47;;;4.03;;
14766;SDS011;7475;53.558;9.970;2023-04-24T09:52:14;4.57;;;3.63;;
14766;SDS011;7475;53.558;9.970;2023-04-24T09:54:40;4.63;;;4.20;;
14766;SDS011;7475;53.558;9.970;2023-04-24T09:57:07;4.82;;;4.00;;
14766;SDS011;7475;53.558;9.970;2023-04-24T09:59:32;5.55;;;4.35;;
14766;SDS011;7475;53.558;9.970;2023-04-24T10:01:58;4.53;;;4.10;;
14766;SDS011;7475;53.558;9.970;2023-04-24T10:04:25;5.35;;;4.13;;
14766;SDS011;7475;53.558;9.970;2023-04-24T10:06:51;5.55;;;4.88;;
14766;SDS011;7475;53.558;9.970;2023-04-24T10:09:17;5.32;;;4.82;;
14766;SDS011;7475;53.558;9.970;2023-04-24T10:11:43;5.47;;;4.95;;
14766;SDS011;7475;53.558;9.970;2023-04-24T10:14:17;5.70;;;5.00;;
14766;SDS011;7475;53.558;9.970;2023-04-24T10:16:42;6.65;;;5.07;;
14766;SDS011;7475;53.558;9.970;2023-04-24T10:19:08;7.82;;;5.82;;
14766;SDS011;7475;53.558;9.970;2023-04-24T10:21:34;6.65;;;6.03;;
14766;SDS011;7475;53.558;9.970;2023-04-24T10:23:59;7.05;;;6.03;;
14766;SDS011;7475;53.558;9.970;2023-04-24T10:26:28;6.70;;;6.00;;
14766;SDS011;7475;53.558;9.970;2023-04-24T10:28:53;6.93;;;6.20;;
14766;SDS011;7475;53.558;9.970;2023-04-24T10:31:19;7.68;;;6.60;;
14766;SDS011;7475;53.558;9.970;2023-04-24T10:33:44;8.35;;;7.43;;
14766;SDS011;7475;53.558;9.970;2023-04-24T10:36:10;10.93;;;7.15;;
14766;SDS011;7475;53.558;9.970;2023-04-24T10:38:38;8.40;;;6.97;;
14766;SDS011;7475;53.558;9.970;2023-04-24T10:41:11;8.13;;;7.20;;
14766;SDS011;7475;53.558;9.970;2023-04-24T10:43:48;9.05;;;7.30;;
14766;SDS011;7475;53.558;9.970;2023-04-24T10:46:29;8.18;;;7.38;;
14766;SDS011;7475;53.558;9.970;2023-04-24T10:48:55;8.00;;;7.20;;
14766;SDS011;7475;53.558;9.970;2023-04-24T10:51:24;7.93;;;7.22;;
14766;SDS011;7475;53.558;9.970;2023-04-24T10:53:49;8.93;;;7.30;;
14766;SDS011;7475;53.558;9.970;2023-04-24T10:56:15;8.00;;;7.20;;
14766;SDS011;7475;53.558;9.970;2023-04-24T10:58:42;7.85;;;7.13;;
14766;SDS011;7475;53.558;9.970;2023-04-24T11:01:23;7.45;;;6.75;;
14766;SDS011;7475;53.558;9.970;2023-04-24T11:03:50;8.35;;;6.70;;
14766;SDS011;7475;53.558;9.970;2023-04-24T11:06:18;8.93;;;7.57;;
14766;SDS011;7475;53.558;9.970;2023-04-24T11:08:53;7.82;;;7.03;;
14766;SDS011;7475;53.558;9.970;2023-04-24T11:11:23;8.75;;;6.95;;
14766;SDS011;7475;53.558;9.970;2023-04-24T11:18:50;7.72;;;6.47;;
14766;SDS011;7475;53.558;9.970;2023-04-24T11:21:18;6.45;;;5.70;;
14766;SDS011;7475;53.558;9.970;2023-04-24T11:23:43;7.75;;;6.38;;
14766;SDS011;7475;53.558;9.970;2023-04-24T11:26:09;7.88;;;6.97;;
14766;SDS011;7475;53.558;9.970;2023-04-24T11:28:35;6.93;;;6.00;;
14766;SDS011;7475;53.558;9.970;2023-04-24T11:31:33;6.70;;;6.10;;
14766;SDS011;7475;53.558;9.970;2023-04-24T11:33:45;6.43;;;5.82;;
14766;SDS011;7475;53.558;9.970;2023-04-24T11:36:11;6.57;;;5.97;;
14766;SDS011;7475;53.558;9.970;2023-04-24T11:38:36;7.20;;;6.45;;
14766;SDS011;7475;53.558;9.970;2023-04-24T11:41:01;7.75;;;6.72;;
14766;SDS011;7475;53.558;9.970;2023-04-24T11:43:28;7.00;;;6.30;;
14766;SDS011;7475;53.558;9.970;2023-04-24T11:45:53;7.65;;;6.20;;
14766;SDS011;7475;53.558;9.970;2023-04-24T11:48:19;6.90;;;6.20;;
14766;SDS011;7475;53.558;9.970;2023-04-24T11:50:45;7.57;;;6.28;;
14766;SDS011;7475;53.558;9.970;2023-04-24T11:53:11;6.95;;;6.30;;
14766;SDS011;7475;53.558;9.970;2023-04-24T11:55:36;5.72;;;5.22;;
14766;SDS011;7475;53.558;9.970;2023-04-24T11:58:02;7.43;;;5.63;;
14766;SDS011;7475;53.558;9.970;2023-04-24T12:00:28;5.38;;;4.85;;
14766;SDS011;7475;53.558;9.970;2023-04-24T12:03:12;6.35;;;5.25;;
14766;SDS011;7475;53.558;9.970;2023-04-24T12:05:37;5.22;;;4.70;;
14766;SDS011;7475;53.558;9.970;2023-04-24T12:08:03;5.90;;;5.30;;
14766;SDS011;7475;53.558;9.970;2023-04-24T12:10:29;6.63;;;5.63;;
14766;SDS011;7475;53.558;9.970;2023-04-24T12:12:56;5.63;;;5.10;;
14766;SDS011;7475;53.558;9.970;2023-04-24T12:15:21;6.43;;;5.35;;
14766;SDS011;7475;53.558;9.970;2023-04-24T12:17:46;6.82;;;5.25;;
14766;SDS011;7475;53.558;9.970;2023-04-24T12:20:12;6.63;;;5.07;;
14766;SDS011;7475;53.558;9.970;2023-04-24T12:22:49;5.63;;;4.63;;
14766;SDS011;7475;53.558;9.970;2023-04-24T12:25:15;5.20;;;4.70;;
14766;SDS011;7475;53.558;9.970;2023-04-24T12:27:41;10.65;;;4.32;;
14766;SDS011;7475;53.558;9.970;2023-04-24T12:30:09;6.25;;;4.38;;
14766;SDS011;7475;53.558;9.970;2023-04-24T12:32:35;5.85;;;5.35;;
14766;SDS011;7475;53.558;9.970;2023-04-24T12:35:00;5.60;;;5.10;;
14766;SDS011;7475;53.558;9.970;2023-04-24T12:37:25;5.40;;;4.95;;
14766;SDS011;7475;53.558;9.970;2023-04-24T12:40:01;5.25;;;4.72;;
14766;SDS011;7475;53.558;9.970;2023-04-24T12:42:27;6.43;;;5.35;;
14766;SDS011;7475;53.558;9.970;2023-04-24T12:44:55;6.00;;;5.40;;
14766;SDS011;7475;53.558;9.970;2023-04-24T12:47:21;5.18;;;4.68;;
14766;SDS011;7475;53.558;9.970;2023-04-24T12:49:46;6.57;;;5.40;;
14766;SDS011;7475;53.558;9.970;2023-04-24T12:52:11;5.67;;;5.17;;
14766;SDS011;7475;53.558;9.970;2023-04-24T12:54:36;8.23;;;4.88;;
14766;SDS011;7475;53.558;9.970;2023-04-24T12:57:02;8.25;;;4.45;;
14766;SDS011;7475;53.558;9.970;2023-04-24T12:59:27;5.60;;;5.10;;
14766;SDS011;7475;53.558;9.970;2023-04-24T13:01:52;5.33;;;4.83;;
14766;SDS011;7475;53.558;9.970;2023-04-24T13:04:17;7.05;;;5.63;;
14766;SDS011;7475;53.558;9.970;2023-04-24T13:06:42;5.40;;;4.90;;
14766;SDS011;7475;53.558;9.970;2023-04-24T13:09:08;5.65;;;5.03;;
14766;SDS011;7475;53.558;9.970;2023-04-24T13:11:33;5.87;;;4.63;;
14766;SDS011;7475;53.558;9.970;2023-04-24T13:13:58;4.35;;;3.90;;
14766;SDS011;7475;53.558;9.970;2023-04-24T13:16:23;3.67;;;3.10;;
14766;SDS011;7475;53.558;9.970;2023-04-24T13:18:48;4.68;;;4.05;;
14766;SDS011;7475;53.558;9.970;2023-04-24T13:21:13;4.93;;;4.43;;
14766;SDS011;7475;53.558;9.970;2023-04-24T13:23:39;4.93;;;4.13;;
14766;SDS011;7475;53.558;9.970;2023-04-24T13:26:04;4.10;;;3.70;;
14766;SDS011;7475;53.558;9.970;2023-04-24T13:28:30;4.28;;;3.97;;
14766;SDS011;7475;53.558;9.970;2023-04-24T13:30:55;4.00;;;3.60;;
14766;SDS011;7475;53.558;9.970;2023-04-24T13:33:20;4.32;;;3.92;;
14766;SDS011;7475;53.558;9.970;2023-04-24T13:35:45;4.78;;;4.15;;
14766;SDS011;7475;53.558;9.970;2023-04-24T13:38:11;4.20;;;3.87;;
14766;SDS011;7475;53.558;9.970;2023-04-24T13:40:36;4.57;;;3.83;;
14766;SDS011;7475;53.558;9.970;2023-04-24T13:43:01;3.67;;;3.30;;
14766;SDS011;7475;53.558;9.970;2023-04-24T13:45:26;4.55;;;3.65;;
14766;SDS011;7475;53.558;9.970;2023-04-24T13:47:52;4.20;;;3.38;;
14766;SDS011;7475;53.558;9.970;2023-04-24T13:50:18;4.00;;;3.60;;
14766;SDS011;7475;53.558;9.970;2023-04-24T13:52:43;5.93;;;3.17;;
14766;SDS011;7475;53.558;9.970;2023-04-24T13:55:09;3.60;;;3.30;;
14766;SDS011;7475;53.558;9.970;2023-04-24T13:57:34;3.35;;;3.05;;
14766;SDS011;7475;53.558;9.970;2023-04-24T14:00:00;4.30;;;3.30;;
14766;SDS011;7475;53.558;9.970;2023-04-24T14:02:27;3.55;;;3.25;;
14766;SDS011;7475;53.558;9.970;2023-04-24T14:04:53;4.70;;;3.97;;
14766;SDS011;7475;53.558;9.970;2023-04-24T14:07:18;4.50;;;3.60;;
14766;SDS011;7475;53.558;9.970;2023-04-24T14:09:43;4.30;;;3.53;;
14766;SDS011;7475;53.558;9.970;2023-04-24T14:12:08;4.63;;;3.30;;
14766;SDS011;7475;53.558;9.970;2023-04-24T14:14:33;4.50;;;3.38;;
14766;SDS011;7475;53.558;9.970;2023-04-24T14:16:59;3.92;;;3.55;;
14766;SDS011;7475;53.558;9.970;2023-04-24T14:19:25;12.80;;;10.35;;
14766;SDS011;7475;53.558;9.970;2023-04-24T14:21:51;3.38;;;3.15;;
14766;SDS011;7475;53.558;9.970;2023-04-24T14:24:16;3.22;;;2.92;;
14766;SDS011;7475;53.558;9.970;2023-04-24T14:26:41;3.70;;;3.40;;
14766;SDS011;7475;53.558;9.970;2023-04-24T14:29:06;4.82;;;4.38;;
14766;SDS011;7475;53.558;9.970;2023-04-24T14:31:31;4.45;;;4.05;;
14766;SDS011;7475;53.558;9.970;2023-04-24T14:33:56;4.97;;;4.47;;
14766;SDS011;7475;53.558;9.970;2023-04-24T14:36:22;5.22;;;4.82;;
14766;SDS011;7475;53.558;9.970;2023-04-24T14:38:47;44.10;;;26.85;;
14766;SDS011;7475;53.558;9.970;2023-04-24T14:41:13;6.53;;;6.03;;
14766;SDS011;7475;53.558;9.970;2023-04-24T14:43:38;6.07;;;5.57;;
14766;SDS011;7475;53.558;9.970;2023-04-24T14:46:03;7.43;;;6.72;;
14766;SDS011;7475;53.558;9.970;2023-04-24T14:48:29;7.95;;;7.25;;
14766;SDS011;7475;53.558;9.970;2023-04-24T14:50:55;8.60;;;7.90;;
14766;SDS011;7475;53.558;9.970;2023-04-24T14:53:20;8.60;;;7.80;;
14766;SDS011;7475;53.558;9.970;2023-04-24T14:55:45;8.43;;;7.72;;
14766;SDS011;7475;53.558;9.970;2023-04-24T14:58:11;9.10;;;8.40;;